Time;durP1;ratioP1;P1;durP2;ratioP2;P2;SDS_P1;SDS_P2;PMS_P1;PMS_P2;Temp;Humidity;BMP_temperature;BMP_pressure;BME280_temperature;BME280_humidity;BME280_pressure;Samples;Min_cycle;Max_cycle;Signal;HPM_P1;HPM_P2
2023/07/13 00:00:28;;;;;;;2.88;2.58;;;;;;;;;;4736981;30;20503;-78
2023/07/13 00:02:56;;;;;;;2.65;2.30;;;;;;;;;;4733921;30;20052;-78
2023/07/13 00:05:24;;;;;;;2.83;1.88;;;;;;;;;;4729928;30;20461;-79
2023/07/13 00:07:52;;;;;;;2.22;2.13;;;;;;;;;;4728784;30;20102;-78
2023/07/13 00:10:20;;;;;;;2.65;2.45;;;;;;;;;;4738005;30;20054;-77
2023/07/13 00:12:48;;;;;;;2.63;2.20;;;;;;;;;;4730942;30;20115;-77
2023/07/13 00:15:22;;;;;;;2.60;2.30;;;;;;;;;;4727682;30;20048;-78
2023/07/13 00:17:50;;;;;;;2.08;1.90;;;;;;;;;;4730108;30;20560;-77
2023/07/13 00:20:17;;;;;;;2.53;2.33;;;;;;;;;;4731533;30;20049;-79
2023/07/13 00:22:45;;;;;;;2.92;2.72;;;;;;;;;;4729240;30;20053;-76
2023/07/13 00:25:14;;;;;;;2.85;2.65;;;;;;;;;;4728920;30;20056;-76
2023/07/13 00:27:44;;;;;;;3.72;2.50;;;;;;;;;;4734478;30;20059;-77
2023/07/13 00:30:13;;;;;;;2.75;2.55;;;;;;;;;;4728663;30;20500;-77
2023/07/13 00:32:40;;;;;;;2.75;2.42;;;;;;;;;;4727619;30;20060;-78
2023/07/13 00:35:08;;;;;;;5.13;2.97;;;;;;;;;;4731114;30;20176;-76
2023/07/13 00:37:36;;;;;;;6.03;2.75;;;;;;;;;;4737844;30;20066;-76
2023/07/13 00:40:05;;;;;;;3.13;2.78;;;;;;;;;;4735598;30;20122;-77
2023/07/13 00:42:33;;;;;;;3.10;2.90;;;;;;;;;;4735039;30;20052;-77
2023/07/13 00:45:12;;;;;;;2.90;2.65;;;;;;;;;;4727013;30;20068;-77
2023/07/13 00:47:40;;;;;;;3.20;2.45;;;;;;;;;;4736770;30;20424;-77
2023/07/13 00:50:10;;;;;;;2.70;2.55;;;;;;;;;;4734370;30;20189;-78
2023/07/13 00:52:41;;;;;;;3.58;2.70;;;;;;;;;;4731930;30;20128;-77
2023/07/13 00:55:09;;;;;;;2.90;2.67;;;;;;;;;;4741087;30;20431;-77
2023/07/13 00:57:37;;;;;;;3.00;2.80;;;;;;;;;;4734028;30;20060;-77
2023/07/13 01:00:08;;;;;;;2.88;2.67;;;;;;;;;;4738261;30;20051;-77
2023/07/13 01:02:38;;;;;;;3.58;3.25;;;;;;;;;;4739286;30;20060;-77
2023/07/13 01:05:10;;;;;;;3.13;2.80;;;;;;;;;;4738053;30;20060;-79
2023/07/13 01:07:38;;;;;;;2.90;2.70;;;;;;;;;;4730863;30;20044;-78
2023/07/13 01:10:07;;;;;;;5.45;2.75;;;;;;;;;;4734598;30;20135;-79
2023/07/13 01:12:34;;;;;;;2.85;2.65;;;;;;;;;;4735920;30;20061;-79
2023/07/13 01:15:02;;;;;;;3.35;3.05;;;;;;;;;;4729685;30;20053;-78
2023/07/13 01:17:30;;;;;;;3.35;3.10;;;;;;;;;;4740310;30;20084;-78
2023/07/13 01:19:59;;;;;;;4.10;3.30;;;;;;;;;;4734758;30;20048;-77
2023/07/13 01:22:27;;;;;;;3.50;3.20;;;;;;;;;;4733240;30;20075;-78
2023/07/13 01:24:57;;;;;;;3.22;2.95;;;;;;;;;;4739473;30;20059;-78
2023/07/13 01:27:25;;;;;;;2.85;2.65;;;;;;;;;;4729541;30;20089;-77
2023/07/13 01:30:01;;;;;;;3.10;2.90;;;;;;;;;;4737256;30;20060;-77
2023/07/13 01:32:32;;;;;;;2.88;2.45;;;;;;;;;;4728342;30;20106;-78
2023/07/13 01:35:00;;;;;;;4.05;2.83;;;;;;;;;;4750755;30;20056;-79
2023/07/13 01:37:27;;;;;;;5.15;3.17;;;;;;;;;;4739702;30;20059;-77
2023/07/13 01:39:55;;;;;;;3.72;3.05;;;;;;;;;;4738425;30;20056;-77
2023/07/13 01:42:22;;;;;;;3.28;2.97;;;;;;;;;;4729737;30;20410;-79
2023/07/13 01:44:50;;;;;;;3.17;2.97;;;;;;;;;;4753547;30;20048;-79
2023/07/13 01:47:18;;;;;;;3.30;3.00;;;;;;;;;;4731936;30;20503;-78
2023/07/13 01:49:47;;;;;;;3.03;2.78;;;;;;;;;;4734743;30;20469;-77
2023/07/13 01:52:14;;;;;;;3.50;3.30;;;;;;;;;;4727685;30;20318;-77
2023/07/13 01:54:42;;;;;;;3.20;2.90;;;;;;;;;;4733884;30;20056;-77
2023/07/13 01:57:09;;;;;;;4.13;3.30;;;;;;;;;;4739732;30;20056;-78
2023/07/13 01:59:37;;;;;;;4.43;4.03;;;;;;;;;;4727259;30;20118;-77
2023/07/13 02:02:06;;;;;;;2.90;2.80;;;;;;;;;;4743216;30;20052;-79
2023/07/13 02:04:34;;;;;;;3.35;3.15;;;;;;;;;;4726637;30;20065;-79
2023/07/13 02:07:02;;;;;;;4.65;3.50;;;;;;;;;;4731714;30;20064;-78
2023/07/13 02:09:31;;;;;;;2.83;2.67;;;;;;;;;;4738145;30;20059;-79
2023/07/13 02:11:58;;;;;;;2.67;2.58;;;;;;;;;;4729564;30;20049;-77
2023/07/13 02:14:31;;;;;;;2.80;2.60;;;;;;;;;;4726818;30;20135;-78
2023/07/13 02:16:58;;;;;;;2.60;2.50;;;;;;;;;;4749386;30;20106;-78
2023/07/13 02:19:26;;;;;;;2.55;2.35;;;;;;;;;;4733784;30;20088;-78
2023/07/13 02:21:53;;;;;;;2.85;2.60;;;;;;;;;;4744645;30;20545;-78
2023/07/13 02:24:21;;;;;;;4.65;2.70;;;;;;;;;;4744963;30;20102;-78
2023/07/13 02:26:48;;;;;;;2.50;2.30;;;;;;;;;;4743979;30;20416;-78
2023/07/13 02:29:16;;;;;;;5.20;2.70;;;;;;;;;;4747626;30;20055;-79
2023/07/13 02:31:45;;;;;;;3.08;2.45;;;;;;;;;;4740676;30;20048;-78
2023/07/13 02:34:13;;;;;;;2.30;2.20;;;;;;;;;;4731219;30;20527;-77
2023/07/13 02:36:41;;;;;;;2.90;2.70;;;;;;;;;;4733278;30;20078;-78
2023/07/13 02:39:09;;;;;;;2.50;2.40;;;;;;;;;;4726509;30;20041;-80
2023/07/13 02:41:36;;;;;;;2.45;2.25;;;;;;;;;;4755850;30;20083;-79
2023/07/13 02:44:04;;;;;;;2.90;2.70;;;;;;;;;;4754678;30;20151;-77
2023/07/13 02:46:32;;;;;;;2.97;2.33;;;;;;;;;;4732590;30;20132;-79
2023/07/13 02:49:00;;;;;;;3.22;2.03;;;;;;;;;;4736496;30;20135;-77
2023/07/13 02:51:28;;;;;;;3.03;1.90;;;;;;;;;;4729545;30;20068;-79
2023/07/13 02:53:56;;;;;;;2.15;1.95;;;;;;;;;;4756072;30;20052;-78
2023/07/13 02:56:25;;;;;;;1.83;1.73;;;;;;;;;;4739645;30;20049;-78
2023/07/13 02:58:53;;;;;;;4.05;2.30;;;;;;;;;;4741527;30;20055;-77
2023/07/13 03:01:21;;;;;;;2.20;2.10;;;;;;;;;;4737027;30;20091;-77
2023/07/13 03:03:50;;;;;;;4.53;1.92;;;;;;;;;;4729570;30;20059;-78
2023/07/13 03:06:19;;;;;;;2.05;1.95;;;;;;;;;;4733726;30;20056;-78
2023/07/13 03:08:50;;;;;;;1.80;1.70;;;;;;;;;;4730425;30;20140;-79
2023/07/13 03:11:19;;;;;;;3.45;2.00;;;;;;;;;;4740743;30;20113;-77
2023/07/13 03:13:53;;;;;;;2.08;1.95;;;;;;;;;;4735488;30;20552;-78
2023/07/13 03:16:21;;;;;;;2.33;2.10;;;;;;;;;;4735716;30;20287;-79
2023/07/13 03:18:51;;;;;;;2.10;2.00;;;;;;;;;;4732317;30;20392;-78
2023/07/13 03:21:19;;;;;;;2.17;2.05;;;;;;;;;;4743498;30;20055;-79
2023/07/13 03:23:46;;;;;;;2.28;1.80;;;;;;;;;;4738841;30;20052;-78
2023/07/13 03:26:16;;;;;;;1.73;1.63;;;;;;;;;;4739865;30;20059;-78
2023/07/13 03:28:44;;;;;;;1.83;1.73;;;;;;;;;;4738619;30;20131;-78
2023/07/13 03:31:17;;;;;;;1.50;1.45;;;;;;;;;;4731256;30;20048;-79
2023/07/13 03:33:45;;;;;;;1.90;1.80;;;;;;;;;;4746878;30;20504;-78
2023/07/13 03:36:16;;;;;;;1.73;1.63;;;;;;;;;;4740622;30;20048;-77
2023/07/13 03:38:43;;;;;;;2.65;1.80;;;;;;;;;;4736332;30;20063;-78
2023/07/13 03:41:11;;;;;;;3.03;1.83;;;;;;;;;;4741921;30;20058;-78
2023/07/13 03:43:38;;;;;;;1.60;1.50;;;;;;;;;;4737258;30;20066;-78
2023/07/13 03:46:06;;;;;;;2.97;1.95;;;;;;;;;;4731196;30;20052;-78
2023/07/13 03:48:34;;;;;;;2.25;2.10;;;;;;;;;;4738383;30;20082;-79
2023/07/13 03:51:01;;;;;;;1.83;1.73;;;;;;;;;;4735836;30;20853;-78
2023/07/13 03:53:29;;;;;;;2.33;2.13;;;;;;;;;;4739187;30;20068;-78
2023/07/13 03:55:57;;;;;;;2.10;2.00;;;;;;;;;;4730181;30;20566;-78
2023/07/13 03:58:36;;;;;;;2.20;2.00;;;;;;;;;;4734260;30;20048;-78
2023/07/13 04:01:14;;;;;;;2.08;1.90;;;;;;;;;;4726650;30;20049;-78
2023/07/13 04:03:42;;;;;;;2.75;2.22;;;;;;;;;;4731466;30;20059;-78
2023/07/13 04:06:15;;;;;;;2.20;2.00;;;;;;;;;;4739170;30;20135;-78
2023/07/13 04:08:43;;;;;;;1.90;1.80;;;;;;;;;;4733797;30;20052;-80
2023/07/13 04:11:10;;;;;;;1.90;1.80;;;;;;;;;;4737896;30;20110;-80
2023/07/13 04:13:38;;;;;;;2.13;1.98;;;;;;;;;;4730158;30;20067;-78
2023/07/13 04:16:05;;;;;;;2.25;1.60;;;;;;;;;;4732630;30;20072;-79
2023/07/13 04:18:33;;;;;;;1.92;1.83;;;;;;;;;;4734975;30;20063;-80
2023/07/13 04:21:00;;;;;;;3.25;1.80;;;;;;;;;;4737241;30;20098;-78
2023/07/13 04:23:28;;;;;;;2.15;1.92;;;;;;;;;;4740747;30;20568;-80
2023/07/13 04:25:55;;;;;;;2.03;1.80;;;;;;;;;;4732187;30;20040;-81
2023/07/13 04:28:23;;;;;;;1.98;1.77;;;;;;;;;;4732588;30;20060;-78
2023/07/13 04:30:51;;;;;;;1.63;1.52;;;;;;;;;;4737941;30;20048;-77
2023/07/13 04:33:22;;;;;;;2.03;1.80;;;;;;;;;;4742388;30;20056;-78
2023/07/13 04:35:54;;;;;;;2.85;1.80;;;;;;;;;;4737959;30;20048;-82
2023/07/13 04:38:24;;;;;;;2.38;2.15;;;;;;;;;;4743119;30;20063;-80
2023/07/13 04:40:52;;;;;;;1.90;1.70;;;;;;;;;;4738193;30;20444;-78
2023/07/13 04:43:19;;;;;;;1.98;1.80;;;;;;;;;;4737315;30;20060;-78
2023/07/13 04:45:47;;;;;;;1.85;1.65;;;;;;;;;;4740263;30;20055;-81
2023/07/13 04:48:14;;;;;;;1.83;1.73;;;;;;;;;;4736741;30;20139;-80
2023/07/13 04:50:43;;;;;;;2.03;1.50;;;;;;;;;;4740031;30;20056;-78
2023/07/13 04:53:11;;;;;;;2.17;1.90;;;;;;;;;;4742978;30;20141;-79
2023/07/13 04:55:39;;;;;;;2.67;1.75;;;;;;;;;;4741291;30;20060;-77
2023/07/13 04:58:06;;;;;;;2.88;1.60;;;;;;;;;;4739431;30;20055;-78
2023/07/13 05:00:33;;;;;;;1.60;1.50;;;;;;;;;;4735786;30;20091;-82
2023/07/13 05:03:01;;;;;;;3.38;1.92;;;;;;;;;;4738257;30;20275;-79
2023/07/13 05:05:29;;;;;;;2.00;1.58;;;;;;;;;;4735163;30;20044;-78
2023/07/13 05:07:56;;;;;;;2.72;1.70;;;;;;;;;;4737973;30;20056;-78
2023/07/13 05:10:24;;;;;;;2.55;1.60;;;;;;;;;;4725970;30;20508;-79
2023/07/13 05:12:52;;;;;;;2.72;1.40;;;;;;;;;;4735708;30;20106;-78
2023/07/13 05:15:22;;;;;;;4.10;1.33;;;;;;;;;;4739952;30;20110;-78
2023/07/13 05:17:50;;;;;;;3.85;2.08;;;;;;;;;;4742001;30;20048;-77
2023/07/13 05:20:18;;;;;;;4.07;1.80;;;;;;;;;;4735574;30;20528;-81
2023/07/13 05:22:50;;;;;;;3.83;2.10;;;;;;;;;;4738393;30;20048;-78
2023/07/13 05:25:19;;;;;;;1.50;1.40;;;;;;;;;;4730980;30;20055;-77
2023/07/13 05:27:47;;;;;;;1.20;1.20;;;;;;;;;;4737380;30;20136;-77
2023/07/13 05:30:15;;;;;;;1.80;1.33;;;;;;;;;;4738890;30;20143;-77
2023/07/13 05:32:42;;;;;;;2.78;1.60;;;;;;;;;;4731911;30;20117;-77
2023/07/13 05:35:10;;;;;;;1.20;1.10;;;;;;;;;;4736782;30;20552;-79
2023/07/13 05:37:38;;;;;;;1.25;1.20;;;;;;;;;;4737083;30;20114;-80
2023/07/13 05:40:06;;;;;;;1.80;1.25;;;;;;;;;;4736690;30;20059;-80
2023/07/13 05:42:33;;;;;;;1.40;1.30;;;;;;;;;;4737133;30;20110;-77
2023/07/13 05:45:01;;;;;;;1.83;1.20;;;;;;;;;;4734546;30;20044;-77
2023/07/13 05:47:28;;;;;;;1.50;1.40;;;;;;;;;;4736882;30;20063;-81
2023/07/13 05:49:56;;;;;;;1.85;1.30;;;;;;;;;;4735799;30;20475;-79
2023/07/13 05:52:23;;;;;;;3.03;1.30;;;;;;;;;;4738312;30;20063;-78
2023/07/13 05:54:50;;;;;;;3.30;1.35;;;;;;;;;;4740470;30;20052;-79
2023/07/13 05:57:18;;;;;;;1.65;1.55;;;;;;;;;;4762338;30;20131;-77
2023/07/13 05:59:45;;;;;;;3.20;1.45;;;;;;;;;;4741590;30;20068;-78
2023/07/13 06:02:14;;;;;;;1.90;1.40;;;;;;;;;;4741822;30;20056;-81
2023/07/13 06:04:41;;;;;;;1.77;1.60;;;;;;;;;;4743611;30;20056;-82
2023/07/13 06:07:09;;;;;;;1.77;1.50;;;;;;;;;;4741659;30;20052;-78
2023/07/13 06:09:36;;;;;;;2.33;1.50;;;;;;;;;;4732849;30;20168;-78
2023/07/13 06:12:04;;;;;;;1.77;1.58;;;;;;;;;;4734558;30;20153;-77
2023/07/13 06:14:32;;;;;;;1.60;1.50;;;;;;;;;;4732401;30;20052;-77
2023/07/13 06:16:59;;;;;;;1.80;1.70;;;;;;;;;;4741357;30;20126;-77
2023/07/13 06:19:27;;;;;;;2.67;1.50;;;;;;;;;;4734136;30;20060;-81
2023/07/13 06:21:54;;;;;;;2.95;1.70;;;;;;;;;;4733340;30;20057;-79
2023/07/13 06:24:24;;;;;;;2.53;1.75;;;;;;;;;;4729917;30;20052;-77
2023/07/13 06:26:51;;;;;;;3.00;1.85;;;;;;;;;;4738095;30;20293;-80
2023/07/13 06:29:19;;;;;;;1.80;1.70;;;;;;;;;;4745503;30;20112;-77
2023/07/13 06:31:46;;;;;;;3.30;1.73;;;;;;;;;;4739987;30;20064;-81
2023/07/13 06:34:14;;;;;;;2.63;1.70;;;;;;;;;;4744405;30;20060;-80
2023/07/13 06:36:41;;;;;;;4.55;1.70;;;;;;;;;;4740855;30;20052;-77
2023/07/13 06:39:08;;;;;;;2.55;1.80;;;;;;;;;;4745489;30;20067;-77
2023/07/13 06:41:36;;;;;;;1.83;1.73;;;;;;;;;;4744042;30;20056;-82
2023/07/13 06:44:03;;;;;;;1.80;1.70;;;;;;;;;;4743775;30;20281;-77
2023/07/13 06:46:31;;;;;;;2.35;2.03;;;;;;;;;;4740579;30;20101;-78
2023/07/13 06:48:58;;;;;;;1.67;1.58;;;;;;;;;;4743229;30;20157;-80
2023/07/13 06:51:26;;;;;;;2.05;1.55;;;;;;;;;;4739947;30;20637;-77
2023/07/13 06:53:55;;;;;;;2.55;1.80;;;;;;;;;;4732082;30;20055;-77
2023/07/13 06:56:23;;;;;;;4.78;2.10;;;;;;;;;;4737518;30;20052;-79
2023/07/13 06:58:50;;;;;;;1.83;1.73;;;;;;;;;;4735422;30;20056;-79
2023/07/13 07:01:18;;;;;;;2.40;1.98;;;;;;;;;;4744444;30;20129;-77
2023/07/13 07:03:45;;;;;;;2.78;2.00;;;;;;;;;;4742136;30;20070;-82
2023/07/13 07:06:14;;;;;;;2.50;1.95;;;;;;;;;;4737737;30;20131;-77
2023/07/13 07:08:41;;;;;;;2.35;1.83;;;;;;;;;;4737060;30;20056;-78
2023/07/13 07:11:09;;;;;;;2.00;1.90;;;;;;;;;;4740189;30;20410;-77
2023/07/13 07:13:37;;;;;;;4.72;2.20;;;;;;;;;;4737978;30;20059;-77
2023/07/13 07:16:04;;;;;;;1.80;1.70;;;;;;;;;;4734032;30;20054;-77
2023/07/13 07:18:32;;;;;;;2.83;2.33;;;;;;;;;;4740412;30;20144;-79
2023/07/13 07:20:59;;;;;;;3.83;2.20;;;;;;;;;;4739802;30;20419;-78
2023/07/13 07:23:27;;;;;;;2.58;1.88;;;;;;;;;;4736433;30;20532;-78
2023/07/13 07:25:55;;;;;;;2.40;2.20;;;;;;;;;;4735713;30;20490;-79
2023/07/13 07:28:22;;;;;;;2.60;2.10;;;;;;;;;;4742680;30;20114;-80
2023/07/13 07:30:53;;;;;;;2.13;2.00;;;;;;;;;;4728819;30;20236;-77
2023/07/13 07:33:41;;;;;;;5.57;2.20;;;;;;;;;;4748340;30;20117;-78
2023/07/13 07:36:08;;;;;;;2.92;2.58;;;;;;;;;;4745536;30;20138;-77
2023/07/13 07:38:39;;;;;;;4.82;1.75;;;;;;;;;;4731490;30;20045;-77
2023/07/13 07:41:06;;;;;;;2.45;2.25;;;;;;;;;;4739583;30;20504;-79
2023/07/13 07:43:37;;;;;;;2.33;2.00;;;;;;;;;;4736919;30;20528;-80
2023/07/13 07:46:04;;;;;;;3.60;1.80;;;;;;;;;;4751052;30;20153;-78
2023/07/13 07:48:32;;;;;;;2.33;2.13;;;;;;;;;;4735155;30;20501;-81
2023/07/13 07:51:01;;;;;;;2.67;1.77;;;;;;;;;;4736134;30;20117;-78
2023/07/13 07:53:28;;;;;;;2.22;2.03;;;;;;;;;;4732803;30;20440;-79
2023/07/13 07:55:58;;;;;;;2.33;2.08;;;;;;;;;;4741353;30;20530;-80
2023/07/13 07:58:45;;;;;;;3.13;1.77;;;;;;;;;;4736280;30;20147;-78
2023/07/13 08:01:16;;;;;;;2.03;1.60;;;;;;;;;;4735993;30;20045;-81
2023/07/13 08:03:46;;;;;;;4.72;1.85;;;;;;;;;;4739926;30;20583;-80
2023/07/13 08:06:19;;;;;;;3.28;2.00;;;;;;;;;;4741008;30;20101;-79
2023/07/13 08:08:50;;;;;;;2.63;2.08;;;;;;;;;;4735363;30;20052;-79
2023/07/13 08:11:18;;;;;;;2.22;2.05;;;;;;;;;;4740032;30;20067;-77
2023/07/13 08:13:48;;;;;;;1.90;1.70;;;;;;;;;;4737458;30;20531;-79
2023/07/13 08:16:20;;;;;;;3.88;2.00;;;;;;;;;;4734484;30;20401;-78
2023/07/13 08:18:50;;;;;;;2.85;2.00;;;;;;;;;;4740300;30;20063;-77
2023/07/13 08:21:19;;;;;;;2.88;1.50;;;;;;;;;;4733123;30;20040;-77
2023/07/13 08:23:47;;;;;;;3.45;1.80;;;;;;;;;;4724401;30;20061;-79
2023/07/13 08:26:15;;;;;;;2.35;1.70;;;;;;;;;;4732015;30;20085;-82
2023/07/13 08:28:42;;;;;;;2.80;1.90;;;;;;;;;;4733566;30;20083;-78
2023/07/13 08:31:11;;;;;;;1.80;1.70;;;;;;;;;;4739370;30;20060;-78
2023/07/13 08:33:40;;;;;;;1.70;1.60;;;;;;;;;;4743189;30;20057;-77
2023/07/13 08:36:08;;;;;;;2.63;1.80;;;;;;;;;;4733322;30;20438;-79
2023/07/13 08:38:35;;;;;;;2.00;1.85;;;;;;;;;;4739791;30;20420;-83
2023/07/13 08:41:11;;;;;;;1.80;1.70;;;;;;;;;;4741990;30;20462;-78
2023/07/13 08:43:39;;;;;;;2.38;1.60;;;;;;;;;;4738542;30;20102;-77
2023/07/13 08:46:10;;;;;;;2.40;1.77;;;;;;;;;;4742271;30;20044;-82
2023/07/13 08:49:01;;;;;;;1.75;1.65;;;;;;;;;;4741870;30;20098;-77
2023/07/13 08:51:44;;;;;;;2.83;1.48;;;;;;;;;;4742649;30;20071;-80
2023/07/13 08:54:17;;;;;;;1.52;1.42;;;;;;;;;;4734722;30;20131;-78
2023/07/13 08:56:47;;;;;;;4.07;1.60;;;;;;;;;;4734327;30;20090;-77
2023/07/13 08:59:16;;;;;;;2.53;1.90;;;;;;;;;;4729098;30;20056;-78
2023/07/13 09:02:03;;;;;;;1.63;1.30;;;;;;;;;;4742672;30;20059;-77
2023/07/13 09:04:36;;;;;;;1.90;1.77;;;;;;;;;;4751372;30;20049;-78
2023/07/13 09:07:03;;;;;;;2.35;1.77;;;;;;;;;;4734345;30;20444;-77
2023/07/13 09:09:43;;;;;;;3.50;1.92;;;;;;;;;;4744556;30;20051;-82
2023/07/13 09:12:24;;;;;;;3.40;1.52;;;;;;;;;;4743651;30;20123;-79
2023/07/13 09:14:53;;;;;;;2.03;1.67;;;;;;;;;;4738150;30;20056;-78
2023/07/13 09:17:35;;;;;;;3.40;1.67;;;;;;;;;;4744904;30;20075;-79
2023/07/13 09:20:09;;;;;;;3.33;1.60;;;;;;;;;;4743721;30;20060;-78
2023/07/13 09:22:38;;;;;;;1.40;1.23;;;;;;;;;;4737130;30;20056;-78
2023/07/13 09:25:45;;;;;;;3.40;1.38;;;;;;;;;;4740995;30;20139;-79
2023/07/13 09:28:17;;;;;;;1.25;1.20;;;;;;;;;;4722046;30;20057;-78
2023/07/13 09:30:53;;;;;;;1.52;1.42;;;;;;;;;;4724380;30;20515;-79
2023/07/13 09:33:21;;;;;;;2.28;1.60;;;;;;;;;;4731785;30;20048;-76
2023/07/13 09:35:49;;;;;;;2.08;1.60;;;;;;;;;;4741735;30;20063;-77
2023/07/13 09:38:19;;;;;;;1.77;1.20;;;;;;;;;;4743811;30;20462;-78
2023/07/13 09:41:01;;;;;;;2.40;1.50;;;;;;;;;;4738480;30;20056;-77
2023/07/13 09:43:29;;;;;;;1.45;1.35;;;;;;;;;;4744464;30;20052;-77
2023/07/13 09:45:56;;;;;;;1.63;1.30;;;;;;;;;;4738999;30;20090;-78
2023/07/13 09:48:24;;;;;;;1.58;1.40;;;;;;;;;;4739703;30;20058;-77
2023/07/13 09:50:56;;;;;;;1.38;1.15;;;;;;;;;;4734372;30;20558;-77
2023/07/13 09:53:24;;;;;;;1.65;1.30;;;;;;;;;;4738876;30;20056;-78
2023/07/13 09:55:52;;;;;;;3.65;1.70;;;;;;;;;;4737592;30;20598;-79
2023/07/13 09:58:22;;;;;;;1.60;1.20;;;;;;;;;;4743919;30;20071;-79
2023/07/13 10:00:57;;;;;;;1.40;1.30;;;;;;;;;;4742255;30;20056;-78
2023/07/13 10:03:26;;;;;;;3.50;1.10;;;;;;;;;;4740332;30;20560;-77
2023/07/13 10:05:54;;;;;;;4.13;1.52;;;;;;;;;;4776176;24;20060;-88
2023/07/13 10:08:24;;;;;;;1.35;1.20;;;;;;;;;;4742165;30;20052;-87
2023/07/13 10:11:09;;;;;;;2.03;1.20;;;;;;;;;;4744974;30;20053;-88
2023/07/13 10:13:38;;;;;;;1.45;1.10;;;;;;;;;;4745816;30;20105;-86
2023/07/13 10:16:09;;;;;;;1.33;1.23;;;;;;;;;;4739520;30;20495;-87
2023/07/13 10:18:50;;;;;;;1.33;1.23;;;;;;;;;;4753943;30;20063;-88
2023/07/13 10:21:20;;;;;;;2.17;1.65;;;;;;;;;;4747786;30;20516;-87
2023/07/13 10:24:18;;;;;;;1.70;1.10;;;;;;;;;;4739583;30;20133;-87
2023/07/13 10:26:48;;;;;;;2.17;1.05;;;;;;;;;;4748575;30;20059;-86
2023/07/13 10:29:17;;;;;;;0.80;0.77;;;;;;;;;;4747936;30;20056;-87
2023/07/13 10:31:45;;;;;;;1.85;1.10;;;;;;;;;;4746800;30;20122;-86
2023/07/13 10:34:13;;;;;;;1.60;1.23;;;;;;;;;;4749768;30;20125;-87
2023/07/13 10:36:44;;;;;;;5.60;1.30;;;;;;;;;;4749199;30;20064;-87
2023/07/13 10:39:38;;;;;;;1.63;1.10;;;;;;;;;;4748564;30;20063;-87
2023/07/13 10:42:07;;;;;;;1.00;1.00;;;;;;;;;;4747500;30;20048;-87
2023/07/13 10:44:34;;;;;;;1.35;1.25;;;;;;;;;;4750976;30;20131;-88
2023/07/13 10:47:08;;;;;;;1.00;1.00;;;;;;;;;;4749098;30;20056;-87
2023/07/13 10:49:36;;;;;;;1.30;1.20;;;;;;;;;;4747260;30;20056;-88
2023/07/13 10:52:04;;;;;;;1.48;1.38;;;;;;;;;;4749657;30;20052;-88
2023/07/13 10:54:35;;;;;;;1.02;1.02;;;;;;;;;;4748826;30;20059;-88
2023/07/13 10:57:20;;;;;;;1.38;1.00;;;;;;;;;;4750938;30;20489;-86
2023/07/13 11:00:08;;;;;;;1.90;1.25;;;;;;;;;;4753390;30;20056;-89
2023/07/13 11:02:36;;;;;;;1.30;1.20;;;;;;;;;;4748470;30;20067;-88
2023/07/13 11:05:26;;;;;;;0.90;0.90;;;;;;;;;;4744610;30;20076;-88
2023/07/13 11:08:13;;;;;;;1.55;1.05;;;;;;;;;;4750537;30;20520;-88
2023/07/13 11:10:49;;;;;;;2.22;1.00;;;;;;;;;;4752643;30;20060;-88
2023/07/13 11:13:37;;;;;;;0.80;0.80;;;;;;;;;;4751376;30;20059;-88
2023/07/13 11:16:34;;;;;;;1.50;0.98;;;;;;;;;;4752107;30;20125;-87
2023/07/13 11:19:07;;;;;;;2.25;0.90;;;;;;;;;;4752359;30;20059;-87
2023/07/13 11:21:56;;;;;;;1.05;1.05;;;;;;;;;;4751611;30;20060;-87
2023/07/13 11:24:29;;;;;;;1.17;1.00;;;;;;;;;;4746405;30;20117;-87
2023/07/13 11:26:56;;;;;;;1.70;0.80;;;;;;;;;;4751378;30;20052;-88
2023/07/13 11:29:27;;;;;;;6.88;0.95;;;;;;;;;;4753036;30;20131;-88
2023/07/13 11:31:58;;;;;;;1.20;1.00;;;;;;;;;;4752162;30;20056;-86
2023/07/13 11:34:34;;;;;;;3.72;0.90;;;;;;;;;;4747571;30;20056;-88
2023/07/13 11:37:02;;;;;;;2.80;1.00;;;;;;;;;;4749081;30;20052;-87
2023/07/13 11:39:38;;;;;;;0.93;0.85;;;;;;;;;;4748230;30;20048;-89
2023/07/13 11:42:15;;;;;;;1.30;0.80;;;;;;;;;;4751402;30;20056;-87
2023/07/13 11:44:50;;;;;;;0.82;0.70;;;;;;;;;;4733541;30;20052;-87
2023/07/13 11:47:40;;;;;;;1.05;0.98;;;;;;;;;;4750999;30;20078;-88
2023/07/13 11:50:18;;;;;;;3.08;0.90;;;;;;;;;;4751234;30;20052;-88
2023/07/13 11:52:45;;;;;;;1.08;0.90;;;;;;;;;;4750273;30;20162;-87
2023/07/13 11:55:19;;;;;;;2.47;0.80;;;;;;;;;;4751983;30;20060;-88
2023/07/13 11:57:51;;;;;;;1.08;0.90;;;;;;;;;;4749398;30;20098;-88
2023/07/13 12:00:24;;;;;;;2.45;1.38;;;;;;;;;;4750562;30;20079;-88
2023/07/13 12:02:53;;;;;;;1.25;1.00;;;;;;;;;;4749744;30;20410;-89
2023/07/13 12:05:21;;;;;;;2.30;1.00;;;;;;;;;;4751378;30;20072;-88
2023/07/13 12:07:49;;;;;;;1.65;0.80;;;;;;;;;;4749927;30;20048;-88
2023/07/13 12:10:41;;;;;;;0.93;0.90;;;;;;;;;;4752067;30;20056;-88
2023/07/13 12:13:54;;;;;;;0.80;0.80;;;;;;;;;;4751506;30;20063;-91
2023/07/13 12:16:41;;;;;;;1.27;0.98;;;;;;;;;;4751291;30;20052;-88
2023/07/13 12:20:00;;;;;;;3.50;0.90;;;;;;;;;;4744300;30;20056;-90
2023/07/13 12:22:51;;;;;;;2.97;1.20;;;;;;;;;;4750493;30;20401;-90
2023/07/13 12:25:53;;;;;;;0.77;0.68;;;;;;;;;;4746071;24;20140;-76
2023/07/13 12:28:22;;;;;;;0.80;0.80;;;;;;;;;;4705052;30;20111;-76
2023/07/13 12:30:50;;;;;;;0.88;0.82;;;;;;;;;;4723221;30;20067;-77
2023/07/13 12:33:17;;;;;;;0.80;0.80;;;;;;;;;;4712063;30;20052;-77
2023/07/13 12:35:47;;;;;;;1.00;0.90;;;;;;;;;;4704264;30;20581;-77
2023/07/13 12:38:15;;;;;;;1.08;0.88;;;;;;;;;;4698655;30;20513;-77
2023/07/13 12:40:42;;;;;;;1.08;0.80;;;;;;;;;;4712186;30;20091;-77
2023/07/13 12:43:13;;;;;;;2.30;0.70;;;;;;;;;;4709702;30;20437;-77
2023/07/13 12:46:01;;;;;;;1.15;0.70;;;;;;;;;;4695712;30;20053;-76
2023/07/13 12:48:29;;;;;;;0.73;0.73;;;;;;;;;;4700887;30;20344;-76
2023/07/13 12:51:14;;;;;;;2.55;2.25;;;;;;;;;;4705106;30;20128;-77
2023/07/13 12:53:42;;;;;;;1.10;0.88;;;;;;;;;;4697496;30;20069;-77
2023/07/13 12:56:17;;;;;;;2.25;0.90;;;;;;;;;;4686925;30;20506;-77
2023/07/13 12:58:46;;;;;;;0.95;0.70;;;;;;;;;;4694644;30;20433;-77
2023/07/13 13:01:14;;;;;;;1.33;0.68;;;;;;;;;;4694424;30;20137;-77
2023/07/13 13:03:46;;;;;;;1.55;0.73;;;;;;;;;;4694893;30;20145;-76
2023/07/13 13:06:20;;;;;;;1.30;0.70;;;;;;;;;;4692474;30;20053;-77
2023/07/13 13:08:49;;;;;;;1.95;0.80;;;;;;;;;;4692691;30;20084;-76
2023/07/13 13:11:16;;;;;;;2.95;1.20;;;;;;;;;;4689168;30;20069;-76
2023/07/13 13:13:44;;;;;;;1.17;0.70;;;;;;;;;;4688879;30;20143;-76
2023/07/13 13:16:15;;;;;;;0.80;0.80;;;;;;;;;;4681873;30;20070;-76
2023/07/13 13:18:42;;;;;;;;;;;;;;;;;;4689010;30;20057;-77
2023/07/13 13:21:11;;;;;;;0.77;0.63;;;;;;;;;;4689238;30;19962;-77
2023/07/13 13:23:38;;;;;;;2.28;0.80;;;;;;;;;;4690072;30;20057;-76
2023/07/13 13:26:10;;;;;;;0.70;0.65;;;;;;;;;;4693149;30;20065;-76
2023/07/13 13:28:37;;;;;;;0.65;0.65;;;;;;;;;;4692365;30;20451;-78
2023/07/13 13:31:05;;;;;;;1.20;1.10;;;;;;;;;;4694023;30;20082;-77
2023/07/13 13:33:32;;;;;;;1.30;0.85;;;;;;;;;;4694432;30;20077;-77
2023/07/13 13:36:00;;;;;;;1.77;0.70;;;;;;;;;;4694247;30;20061;-77
2023/07/13 13:38:28;;;;;;;0.90;0.90;;;;;;;;;;4694220;30;20140;-77
2023/07/13 13:40:56;;;;;;;0.77;0.60;;;;;;;;;;4691006;30;20104;-78
2023/07/13 13:43:28;;;;;;;2.15;0.77;;;;;;;;;;4688621;30;20520;-77
2023/07/13 13:45:57;;;;;;;1.50;0.57;;;;;;;;;;4687858;30;20134;-77
2023/07/13 13:48:34;;;;;;;0.75;0.70;;;;;;;;;;4690085;30;20097;-77
2023/07/13 13:51:06;;;;;;;2.55;0.70;;;;;;;;;;4689130;30;20069;-76
2023/07/13 13:53:34;;;;;;;1.20;0.75;;;;;;;;;;4689258;30;20057;-76
2023/07/13 13:56:01;;;;;;;0.90;0.63;;;;;;;;;;4690272;30;20124;-76
2023/07/13 13:58:29;;;;;;;0.57;0.57;;;;;;;;;;4691826;30;20091;-77
2023/07/13 14:00:58;;;;;;;0.85;0.63;;;;;;;;;;4692283;30;20157;-77
2023/07/13 14:03:25;;;;;;;0.80;0.80;;;;;;;;;;4693830;30;20057;-77
2023/07/13 14:05:53;;;;;;;1.08;0.60;;;;;;;;;;4693454;30;20092;-77
2023/07/13 14:08:21;;;;;;;0.80;0.80;;;;;;;;;;4696909;30;20084;-77
2023/07/13 14:10:51;;;;;;;3.00;1.10;;;;;;;;;;4695761;30;20069;-77
2023/07/13 14:13:26;;;;;;;1.42;0.80;;;;;;;;;;4692041;30;20156;-76
2023/07/13 14:15:54;;;;;;;1.25;0.80;;;;;;;;;;4692541;30;20425;-77
2023/07/13 14:18:23;;;;;;;1.77;0.88;;;;;;;;;;4692899;30;20069;-77
2023/07/13 14:20:52;;;;;;;1.50;0.80;;;;;;;;;;4692277;30;20081;-77
2023/07/13 14:23:20;;;;;;;1.48;1.05;;;;;;;;;;4691695;30;20058;-76
2023/07/13 14:25:48;;;;;;;0.73;0.73;;;;;;;;;;4691537;30;20481;-77
2023/07/13 14:28:24;;;;;;;0.90;0.90;;;;;;;;;;4691719;30;20505;-76
2023/07/13 14:30:52;;;;;;;0.70;0.70;;;;;;;;;;4691133;30;20064;-77
2023/07/13 14:33:20;;;;;;;2.28;0.70;;;;;;;;;;4691339;30;20069;-77
2023/07/13 14:35:47;;;;;;;1.45;0.88;;;;;;;;;;4691136;30;20057;-76
2023/07/13 14:38:19;;;;;;;3.83;0.70;;;;;;;;;;4684525;30;20402;-76
2023/07/13 14:40:47;;;;;;;0.70;0.70;;;;;;;;;;4691504;30;20057;-76
2023/07/13 14:43:15;;;;;;;0.88;0.88;;;;;;;;;;4683884;30;20065;-76
2023/07/13 14:45:47;;;;;;;2.08;0.70;;;;;;;;;;4690817;30;20049;-77
2023/07/13 14:48:22;;;;;;;1.00;0.70;;;;;;;;;;4684775;30;20069;-77
2023/07/13 14:50:56;;;;;;;2.20;0.82;;;;;;;;;;4691485;30;20207;-76
2023/07/13 14:53:28;;;;;;;1.23;0.90;;;;;;;;;;4691339;30;20577;-77
2023/07/13 14:55:59;;;;;;;1.33;0.60;;;;;;;;;;4690873;30;20061;-77
2023/07/13 14:58:27;;;;;;;0.90;0.90;;;;;;;;;;4691442;30;20136;-76
2023/07/13 15:00:58;;;;;;;1.97;0.70;;;;;;;;;;4689742;30;20061;-76
2023/07/13 15:03:26;;;;;;;1.75;0.70;;;;;;;;;;4690948;30;20045;-77